sensor_id;sensor_type;location;lat;lon;timestamp;P1;durP1;ratioP1;P2;durP2;ratioP2
15408;SDS011;7803;48.130;13.788;2023-07-24T07:37:35;7.68;;;6.43;;
15408;SDS011;7803;48.130;13.788;2023-07-24T07:44:54;8.43;;;6.45;;
15408;SDS011;7803;48.130;13.788;2023-07-24T07:48:52;6.97;;;6.13;;
15408;SDS011;7803;48.130;13.788;2023-07-24T08:41:30;6.45;;;5.78;;
15408;SDS011;7803;48.130;13.788;2023-07-24T08:44:34;7.60;;;5.90;;
15408;SDS011;7803;48.130;13.788;2023-07-24T08:47:54;7.43;;;5.97;;
15408;SDS011;7803;48.130;13.788;2023-07-24T08:51:12;6.38;;;5.78;;
15408;SDS011;7803;48.130;13.788;2023-07-24T08:54:30;7.55;;;5.82;;
15408;SDS011;7803;48.130;13.788;2023-07-24T15:48:27;6.78;;;5.75;;
15408;SDS011;7803;48.130;13.788;2023-07-24T15:51:30;6.70;;;6.00;;
15408;SDS011;7803;48.130;13.788;2023-07-24T15:54:32;7.88;;;5.65;;
15408;SDS011;7803;48.130;13.788;2023-07-24T15:57:34;6.28;;;5.50;;
15408;SDS011;7803;48.130;13.788;2023-07-24T16:00:37;6.78;;;5.38;;
15408;SDS011;7803;48.130;13.788;2023-07-24T16:03:41;7.38;;;5.80;;
15408;SDS011;7803;48.130;13.788;2023-07-24T16:06:44;6.43;;;5.40;;
15408;SDS011;7803;48.130;13.788;2023-07-24T16:09:46;6.00;;;5.30;;
15408;SDS011;7803;48.130;13.788;2023-07-24T16:12:49;10.45;;;6.00;;
15408;SDS011;7803;48.130;13.788;2023-07-24T16:15:51;6.20;;;5.30;;
15408;SDS011;7803;48.130;13.788;2023-07-24T16:19:11;5.93;;;5.03;;
15408;SDS011;7803;48.130;13.788;2023-07-24T16:22:14;6.97;;;5.47;;
15408;SDS011;7803;48.130;13.788;2023-07-24T16:25:18;6.68;;;5.10;;
15408;SDS011;7803;48.130;13.788;2023-07-24T16:28:21;6.18;;;5.55;;
15408;SDS011;7803;48.130;13.788;2023-07-24T16:31:24;7.18;;;5.50;;
15408;SDS011;7803;48.130;13.788;2023-07-24T16:34:27;5.82;;;5.03;;
15408;SDS011;7803;48.130;13.788;2023-07-24T16:37:31;6.00;;;5.07;;
15408;SDS011;7803;48.130;13.788;2023-07-24T16:40:34;6.38;;;5.18;;
15408;SDS011;7803;48.130;13.788;2023-07-24T16:43:37;7.07;;;5.05;;
15408;SDS011;7803;48.130;13.788;2023-07-24T16:46:40;6.30;;;5.15;;
15408;SDS011;7803;48.130;13.788;2023-07-24T22:51:53;5.28;;;4.32;;
15408;SDS011;7803;48.130;13.788;2023-07-24T22:54:55;5.57;;;4.38;;
15408;SDS011;7803;48.130;13.788;2023-07-24T22:57:58;5.82;;;4.25;;
15408;SDS011;7803;48.130;13.788;2023-07-24T23:01:00;5.65;;;4.15;;
15408;SDS011;7803;48.130;13.788;2023-07-24T23:04:02;4.22;;;3.60;;
15408;SDS011;7803;48.130;13.788;2023-07-24T23:07:06;3.53;;;3.22;;
15408;SDS011;7803;48.130;13.788;2023-07-24T23:10:09;4.03;;;3.40;;
15408;SDS011;7803;48.130;13.788;2023-07-24T23:13:11;4.32;;;3.35;;
15408;SDS011;7803;48.130;13.788;2023-07-24T23:16:13;3.50;;;3.20;;
15408;SDS011;7803;48.130;13.788;2023-07-24T23:19:15;3.72;;;3.33;;
15408;SDS011;7803;48.130;13.788;2023-07-24T23:22:25;4.93;;;3.28;;
15408;SDS011;7803;48.130;13.788;2023-07-24T23:25:28;3.88;;;3.08;;
15408;SDS011;7803;48.130;13.788;2023-07-24T23:28:30;4.10;;;3.33;;
15408;SDS011;7803;48.130;13.788;2023-07-24T23:31:33;4.13;;;3.40;;
15408;SDS011;7803;48.130;13.788;2023-07-24T23:34:35;4.13;;;3.40;;
